Airfield :
LOGIN :

Register | Disclaimer

   EN    FR    IT 

 










Legend :    VFR   Marginal VFR   IFR   Intensive IFR   Very Intensive IFR
Visi :
Ceiling :
>= 8 km
>= 3000ft
5 to 8 km
1000 to 3000 ft
1500m to 5 km
500 to 1000 ft
800 to 1500m
200 to 500 ft
< 800m
< 200 ft
Symbols :   Thunderstorms  Fog  Heavy snow  Heavy precipitations  Wind > 20 kt
SIGMETs :     Misc.  Thunderstorms  Icing  Turbulence  Mountain Waves  Volcanic Ashes






- Airport Elevation : 939 ft


LKKB - Kbely Air Base

CURRENT METAR :
  • 021930Z 24009KT CAVOK 14/11 Q1012 NOSIG

EXPIRED METARs :
  • 021900Z 24010KT 9999 SCT022 BKN060 13/11 Q1012 NOSIG
  • 021830Z 26013KT 9999 -RA FEW016 SCT037 BKN060 14/11 Q1013 NOSIG
  • 021800Z 32010KT 280V350 9999 RA BKN036 OVC050 14/11 Q1014 NOSIG
  • 021730Z 28010KT 250V320 9999 RA FEW026 BKN060 16/11 Q1014 NOSIG
  • 021700Z 26004KT 230V290 9999 -RA FEW040 BKN060 BKN100 18/12 Q1013 NOSIG

TAF TAF LKKB
Valid from the 02 at 18:00 until the 03 at 18:00 UTC


021700Z 0218/0318 23008KT CAVOK
TEMPO 0218/0222 27012G24KT 7000 SHRA SCT035TCU
TEMPO 0218/0222 5000 TSRA BKN030CB
BECMG 0222/0300 29005KT
TEMPO 0310/0318 06008KT 7000 SHRA SCT030CB



MET'MAP, your aeronautical weather chart ! - Copyright ORBIFLY December 2007 - Disclaimer

ORBIFLY MET'MAP TEAM :

Programming & Development : Alexandra Zaïnal
Concept & original design : Baudouin d'Aumeries
Assistance for programming : Marc-Olivier Méhu
Technical & hardware support : Manuel Goepfert

Contact : metmap@orbifly.com




SOURCES & CREDITS :

   NOAA